Create Custom Reports and Graphics: Custom Report

Kelseyville Remote

Current Conditions

6/19/21 5:45 PM (-07:00)
Updated Every 15 Minutes
Temp 101.4 °F   3.8
RH 9 %   2
Dew Pt 32.6 °F   7.7
Wet Bulb 58.1 °F   2.5
BatVolt 13.3 V   0.0
Monthly Rain 0.00 In
Seasonal Rainfall 7.80 In

Today & Yesterday

Kelseyville Remote

6/19/21 5:45 PM (-07:00)
Updated Every 15 Minutes
Daily Max Temp 106.0 °F   1.4
Time of Max Temp 1506
Daily Min Temp 55.7 °F   2.6
Time of Min Temp 0532
Daily Rain 0.00 In
Yesterday's Max Temp 107.4 °F
Yesterday’s Min Temp 53.1 °F
Yesterday's Rainfall 0.00 In

Last 7 Days

Kelseyville Remote

Hourly Data | America/Los_Angeles
as of 6/19/21 5:59 PM PDT
Date & Time Temp (°F) RH (%) Dew Pt (°F) Wet Bulb (°F) BatVolt (V) Latest Rain (In) Daily Rain (In) Daily Min Temp (°F) Daily Max Temp (°F)
6/19/21 - 1700 103.5 11 38.3 59.8 13.3 0.00 0.00 55.7 106.0
6/19/21 - 1600 104.7 10 38.1 59.9 13.3 0.00 0.00 55.7 106.0
6/19/21 - 1500 102.8 10 36.7 59.3 13.3 0.00 0.00 55.7 105.8
6/19/21 - 1400 99.8 14 42.6 60.7 13.3 0.00 0.00 55.7 101.1
6/19/21 - 1300 97.5 17 44.7 61.2 13.4 0.00 0.00 55.7 99.1
6/19/21 - 1200 91.8 27 52.7 64.1 13.4 0.00 0.00 55.7 96.1
6/19/21 - 1100 86.1 34 54.7 64.3 13.4 0.00 0.00 55.7 88.0
6/19/21 - 1000 82.2 42 56.6 64.8 13.5 0.00 0.00 55.7 83.4
6/19/21 - 0900 78.9 37 50.2 60.5 13.6 0.00 0.00 55.7 82.0
6/19/21 - 0800 73.6 38 46.4 57.3 13.7 0.00 0.00 55.7 78.5
6/19/21 - 0700 61.0 60 46.7 53.4 13.2 0.00 0.00 55.7 67.2
6/19/21 - 0600 56.2 68 45.9 51.2 12.8 0.00 0.00 55.7 64.8
6/19/21 - 0500 57.3 69 47.2 52.3 12.8 0.00 0.00 56.2 64.8
6/19/21 - 0400 59.3 64 47.0 53.0 12.8 0.00 0.00 58.5 64.8
6/19/21 - 0300 61.0 61 47.6 54.0 12.8 0.00 0.00 60.2 64.8
6/19/21 - 0200 63.4 54 46.6 54.3 12.9 0.00 0.00 61.7 64.8
6/19/21 - 0100 66.2 51 47.4 55.6 12.9 0.00 0.00 53.1 107.4
6/19/21 - 0000 71.3 40 45.7 56.3 13.0 0.00 0.00 53.1 107.4
6/18/21 - 2300 76.5 32 44.5 57.1 13.0 0.00 0.00 53.1 107.4
6/18/21 - 2200 77.9 34 47.3 58.8 13.0 0.00 0.00 53.1 107.4
6/18/21 - 2100 88.1 25 48.0 61.2 13.1 0.00 0.00 53.1 107.4
6/18/21 - 2000 97.8 17 45.1 61.3 13.3 0.00 0.00 53.1 107.4
6/18/21 - 1900 101.6 15 44.8 61.6 13.2 0.00 0.00 53.1 107.4
6/18/21 - 1800 105.8 9 32.9 59.0 13.2 0.00 0.00 53.1 107.4
6/18/21 - 1700 106.7 5 22.1 56.8 13.2 0.00 0.00 53.1 107.3
6/18/21 - 1600 103.8 13 41.4 61.2 13.3 0.00 0.00 53.1 107.0
6/18/21 - 1500 103.0 14 44.9 61.9 13.3 0.00 0.00 53.1 104.6
6/18/21 - 1400 101.5 13 41.6 60.7 13.3 0.00 0.00 53.1 103.3
6/18/21 - 1300 95.1 23 51.0 63.6 13.4 0.00 0.00 53.1 99.7
6/18/21 - 1200 89.5 28 52.0 63.4 13.4 0.00 0.00 53.1 91.5
6/18/21 - 1100 84.0 38 55.3 64.3 13.5 0.00 0.00 53.1 86.6
6/18/21 - 1000 80.6 40 54.1 63.0 13.5 0.00 0.00 53.1 83.0
6/18/21 - 0900 78.6 35 48.3 59.5 13.6 0.00 0.00 53.1 80.6
6/18/21 - 0800 71.1 42 46.5 56.6 13.7 0.00 0.00 53.1 76.9
6/18/21 - 0700 58.9 65 46.9 52.7 13.3 0.00 0.00 53.1 67.1
6/18/21 - 0600 54.4 69 44.6 49.7 12.8 0.00 0.00 53.1 63.0
6/18/21 - 0500 54.6 73 46.2 50.7 12.8 0.00 0.00 53.8 63.0
6/18/21 - 0400 56.5 66 45.4 51.0 12.8 0.00 0.00 55.5 63.0
6/18/21 - 0300 58.9 60 45.1 51.8 12.9 0.00 0.00 57.8 63.0
6/18/21 - 0200 61.5 54 44.7 52.6 12.9 0.00 0.00 60.4 63.0
6/18/21 - 0100 64.2 49 44.6 53.5 12.9 0.00 0.00 49.9 106.7
6/18/21 - 0000 68.0 43 44.8 54.9 13.0 0.00 0.00 49.9 106.7
6/17/21 - 2300 73.3 36 44.8 56.5 13.0 0.00 0.00 49.9 106.7
6/17/21 - 2200 76.5 33 45.1 57.4 13.0 0.00 0.00 49.9 106.7
6/17/21 - 2100 83.8 30 48.2 60.4 13.1 0.00 0.00 49.9 106.7
6/17/21 - 2000 94.9 16 41.9 59.8 13.3 0.00 0.00 49.9 106.7
6/17/21 - 1900 98.5 13 39.5 59.5 13.3 0.00 0.00 49.9 106.7
6/17/21 - 1800 101.5 11 38.1 59.6 13.3 0.00 0.00 49.9 106.7
6/17/21 - 1700 104.5 9 34.2 59.0 13.3 0.00 0.00 49.9 106.7
6/17/21 - 1600 102.4 12 38.8 60.2 13.3 0.00 0.00 49.9 105.9
6/17/21 - 1500 101.7 11 38.0 59.6 13.3 0.00 0.00 49.9 102.5
6/17/21 - 1400 96.7 15 40.8 59.8 13.4 0.00 0.00 49.9 100.4
6/17/21 - 1300 91.8 23 48.4 61.9 13.4 0.00 0.00 49.9 93.7
6/17/21 - 1200 86.5 27 48.5 61.2 13.5 0.00 0.00 49.9 90.0
6/17/21 - 1100 81.7 34 50.2 61.1 13.5 0.00 0.00 49.9 83.8
6/17/21 - 1000 77.1 40 50.7 60.4 13.6 0.00 0.00 49.9 79.3
6/17/21 - 0900 74.8 39 47.9 58.4 13.6 0.00 0.00 49.9 76.6
6/17/21 - 0800 68.5 42 44.6 54.9 13.7 0.00 0.00 49.9 73.0
6/17/21 - 0700 56.0 64 43.5 49.7 13.2 0.00 0.00 49.9 63.6
6/17/21 - 0600 50.5 74 42.7 47.0 12.8 0.00 0.00 49.9 61.0
6/17/21 - 0500 51.6 76 44.3 48.3 12.8 0.00 0.00 51.0 61.0
6/17/21 - 0400 53.2 72 44.5 49.2 12.9 0.00 0.00 52.0 61.0
6/17/21 - 0300 55.9 65 44.3 50.2 12.9 0.00 0.00 54.5 61.0
6/17/21 - 0200 58.6 60 44.9 51.6 12.9 0.00 0.00 57.3 61.0
6/17/21 - 0100 63.3 53 46.0 53.9 13.0 0.00 0.00 43.6 99.7
6/17/21 - 0000 66.4 49 46.3 55.1 13.0 0.00 0.00 43.6 99.7
6/16/21 - 2300 71.6 39 45.6 56.3 13.0 0.00 0.00 43.6 99.7
6/16/21 - 2200 76.1 35 46.1 57.8 13.1 0.00 0.00 43.6 99.7
6/16/21 - 2100 82.2 31 48.6 60.3 13.1 0.00 0.00 43.6 99.7
6/16/21 - 2000 89.2 23 46.3 60.6 13.4 0.00 0.00 43.6 99.7
6/16/21 - 1900 93.1 17 42.0 59.6 13.3 0.00 0.00 43.6 99.7
6/16/21 - 1800 97.0 14 40.2 59.6 13.3 0.00 0.00 43.6 99.7
6/16/21 - 1700 97.7 10 31.6 57.3 13.3 0.00 0.00 43.6 99.7
6/16/21 - 1600 95.9 10 29.8 56.6 13.4 0.00 0.00 43.6 98.2
6/16/21 - 1500 92.6 17 40.5 59.0 13.4 0.00 0.00 43.6 93.8
6/16/21 - 1400 91.3 18 41.9 59.2 13.4 0.00 0.00 43.6 93.3
6/16/21 - 1300 86.1 19 39.3 57.3 13.5 0.00 0.00 43.6 88.6
6/16/21 - 1200 79.8 29 44.5 58.0 13.6 0.00 0.00 43.6 83.3
6/16/21 - 1100 74.6 39 48.2 58.4 13.6 0.00 0.00 43.6 77.6
6/16/21 - 1000 71.3 46 49.4 58.2 13.6 0.00 0.00 43.6 73.0
6/16/21 - 0900 66.6 49 46.9 55.5 13.7 0.00 0.00 43.6 69.6
6/16/21 - 0800 61.0 53 43.5 51.8 13.8 0.00 0.00 43.6 65.7
6/16/21 - 0700 49.5 73 40.9 45.5 13.2 0.00 0.00 43.6 55.6
6/16/21 - 0600 44.3 81 38.9 42.0 12.8 0.00 0.00 43.6 51.5
6/16/21 - 0500 45.2 81 39.7 42.8 12.8 0.00 0.00 44.0 51.5
6/16/21 - 0400 46.5 76 39.5 43.4 12.8 0.00 0.00 45.9 51.5
6/16/21 - 0300 48.2 74 40.2 44.7 12.9 0.00 0.00 47.5 51.5
6/16/21 - 0200 50.0 71 41.1 46.0 12.9 0.00 0.00 48.2 51.5
6/16/21 - 0100 53.1 68 42.6 48.1 12.9 0.00 0.00 45.6 84.8
6/16/21 - 0000 56.0 61 42.7 49.4 12.9 0.00 0.00 45.6 84.8
6/15/21 - 2300 59.7 54 43.3 51.2 13.0 0.00 0.00 45.6 84.8
6/15/21 - 2200 64.2 49 44.3 53.4 13.0 0.00 0.00 45.6 84.8
6/15/21 - 2100 70.6 39 44.5 55.5 13.1 0.00 0.00 45.6 84.8
6/15/21 - 2000 74.9 33 44.0 56.5 13.4 0.00 0.00 45.6 84.8
6/15/21 - 1900 78.7 30 44.2 57.6 13.5 0.00 0.00 45.6 84.8
6/15/21 - 1800 81.7 26 43.6 58.0 13.5 0.00 0.00 45.6 84.8
6/15/21 - 1700 83.5 21 39.6 56.8 13.5 0.00 0.00 45.6 84.8
6/15/21 - 1600 83.7 18 35.1 55.4 13.5 0.00 0.00 45.6 84.8
6/15/21 - 1500 82.3 17 33.0 54.4 13.5 0.00 0.00 45.6 83.6
6/15/21 - 1400 79.9 18 32.2 53.6 13.6 0.00 0.00 45.6 81.7
6/15/21 - 1300 76.3 24 36.5 53.9 13.6 0.00 0.00 45.6 78.6
6/15/21 - 1200 72.0 32 40.4 54.1 13.6 0.00 0.00 45.6 73.8
6/15/21 - 1100 69.3 35 40.5 53.4 13.6 0.00 0.00 45.6 71.2
6/15/21 - 1000 64.9 49 45.5 54.2 13.7 0.00 0.00 45.6 67.6
6/15/21 - 0900 62.4 53 45.1 53.1 13.8 0.00 0.00 45.6 64.0
6/15/21 - 0800 58.4 56 42.6 50.3 13.8 0.00 0.00 45.6 60.9
6/15/21 - 0700 49.5 71 40.5 45.4 13.2 0.00 0.00 45.6 55.7
6/15/21 - 0600 46.6 78 40.2 43.8 12.8 0.00 0.00 45.6 55.1
6/15/21 - 0500 48.8 75 41.1 45.4 12.8 0.00 0.00 47.5 55.1
6/15/21 - 0400 49.6 72 41.1 45.7 12.9 0.00 0.00 49.1 55.1
6/15/21 - 0300 49.7 70 40.6 45.6 12.9 0.00 0.00 49.1 55.1
6/15/21 - 0200 53.7 63 41.2 47.7 13.0 0.00 0.00 50.8 55.1
6/15/21 - 0100 55.8 58 41.4 48.7 12.9 0.00 0.00 55.1 79.0
6/15/21 - 0000 56.9 56 41.5 49.2 13.0 0.00 0.00 56.3 79.0
6/14/21 - 2300 58.3 53 41.3 49.7 13.0 0.00 0.00 57.4 79.0
6/14/21 - 2200 60.2 52 42.4 51.0 13.0 0.00 0.00 58.9 79.0
6/14/21 - 2100 63.5 47 43.0 52.5 13.1 0.00 0.00 58.9 79.0
6/14/21 - 2000 67.9 36 40.1 52.7 13.7 0.00 0.00 58.9 79.0
6/14/21 - 1900 71.7 32 40.2 53.9 13.6 0.00 0.00 58.9 79.0
6/14/21 - 1800 74.0 29 40.2 54.6 13.6 0.00 0.00 58.9 79.0
6/14/21 - 1700 76.0 31 43.3 56.5 13.6 0.00 0.00 58.9 79.0
6/14/21 - 1600 77.2 29 42.2 56.3 13.6 0.00 0.00 58.9 79.0
6/14/21 - 1500 77.3 29 42.3 56.4 13.6 0.00 0.00 58.9 79.0
6/14/21 - 1400 75.8 32 43.8 56.7 13.6 0.00 0.00 58.9 77.0
6/14/21 - 1300 74.4 34 43.8 56.3 13.6 0.00 0.00 58.9 75.6
6/14/21 - 1200 72.8 40 47.0 57.4 13.6 0.00 0.00 58.9 73.7
6/14/21 - 1100 71.0 44 48.3 57.6 13.6 0.00 0.00 58.9 72.5
6/14/21 - 1000 68.9 51 49.9 57.8 13.7 0.00 0.00 58.9 70.3
6/14/21 - 0900 66.8 58 51.7 58.3 13.7 0.00 0.00 58.9 68.3
6/14/21 - 0800 64.1 68 53.4 58.5 13.7 0.00 0.00 58.9 66.4
6/14/21 - 0700 59.3 80 53.1 56.7 13.1 0.00 0.00 58.9 63.8
6/14/21 - 0600 59.4 81 53.6 57.0 12.9 0.00 0.00 59.1 63.8
6/14/21 - 0500 59.9 80 53.7 57.2 12.9 0.00 0.00 59.3 63.8
6/14/21 - 0400 61.3 78 54.4 58.2 12.9 0.00 0.00 60.9 63.8
6/14/21 - 0300 63.1 75 54.9 59.2 13.0 0.00 0.00 61.6 63.8
6/14/21 - 0200 63.5 75 55.4 59.6 13.0 0.00 0.00 63.3 63.8
6/14/21 - 0100 64.2 72 55.0 59.6 13.0 0.00 0.00 52.0 84.6
6/14/21 - 0000 64.8 70 54.9 59.7 13.0 0.00 0.00 52.0 84.6
6/13/21 - 2300 64.3 71 54.8 59.4 13.0 0.00 0.00 52.0 84.6
6/13/21 - 2200 64.6 69 54.4 59.3 13.0 0.00 0.00 52.0 84.6
6/13/21 - 2100 66.8 64 54.4 59.9 13.1 0.00 0.00 52.0 84.6
6/13/21 - 2000 71.5 55 54.4 61.2 13.4 0.00 0.00 52.0 84.6
6/13/21 - 1900 75.8 46 53.4 61.6 13.5 0.00 0.00 52.0 84.6
6/13/21 - 1800 79.4 37 50.5 60.8 13.5 0.00 0.00 52.0 84.6
6/13/21 - 1700 81.9 32 49.2 60.6 13.5 0.00 0.00 52.0 84.6
6/13/21 - 1600 82.8 31 49.3 60.9 13.5 0.00 0.00 52.0 84.6
6/13/21 - 1500 82.3 30 48.2 60.2 13.5 0.00 0.00 52.0 84.0
6/13/21 - 1400 80.5 34 49.3 60.4 13.5 0.00 0.00 52.0 82.5
6/13/21 - 1300 78.0 37 49.4 59.9 13.6 0.00 0.00 52.0 79.2
6/13/21 - 1200 75.4 45 52.4 61.0 13.6 0.00 0.00 52.0 77.3
6/13/21 - 1100 71.5 54 53.8 60.9 13.6 0.00 0.00 52.0 74.5
6/13/21 - 1000 68.8 60 54.2 60.4 13.7 0.00 0.00 52.0 70.3
6/13/21 - 0900 67.1 64 54.3 60.0 13.7 0.00 0.00 52.0 69.2
6/13/21 - 0800 63.4 72 54.2 58.7 13.8 0.00 0.00 52.0 66.1
6/13/21 - 0700 53.7 89 50.6 52.8 13.2 0.00 0.00 52.0 60.6
6/13/21 - 0600 53.2 90 50.3 52.4 12.8 0.00 0.00 52.2 60.6
6/13/21 - 0500 55.7 88 52.3 54.7 12.8 0.00 0.00 54.0 60.6
6/13/21 - 0400 57.1 87 53.3 56.0 12.9 0.00 0.00 56.2 60.6
6/13/21 - 0300 59.1 84 54.1 57.2 12.9 0.00 0.00 57.5 60.6
6/13/21 - 0200 60.1 81 54.2 57.7 12.9 0.00 0.00 59.8 60.6
6/13/21 - 0100 60.8 78 54.0 57.8 13.0 0.00 0.00 55.2 86.0
6/13/21 - 0000 63.0 73 54.2 58.6 13.0 0.00 0.00 55.2 86.0
6/12/21 - 2300 67.3 63 54.4 60.0 13.0 0.00 0.00 55.2 86.0
6/12/21 - 2200 70.3 59 55.1 61.3 13.0 0.00 0.00 55.2 86.0
6/12/21 - 2100 74.2 51 54.9 62.1 13.1 0.00 0.00 55.2 86.0
6/12/21 - 2000 78.4 44 54.7 62.9 13.4 0.00 0.00 55.2 86.0
6/12/21 - 1900 80.9 40 54.4 63.2 13.5 0.00 0.00 55.2 86.0
6/12/21 - 1800 82.5 38 54.6 63.7 13.5 0.00 0.00 55.2 86.0
Max 106.7 90 56.6 64.8 13.8 0.00 0.00 63.3 107.4
Avg 72.8 46 45.8 56.3 13.3 0.00 - - -
Min 44.3 5 22.1 42.0 12.8 0.00 0.00 43.6 51.5
Total - - - - - 0.00 - - -